CheckWX is a tool to help pilots better visualize weather data.  It is not intended as a substitute for an official pre-flight weather briefing.

07:18:28 UTC

KMAF TAF
Midland International Air and Space Port Airport
Midland, Texas, USA
KMAF 241120Z 2412/2512 17011KT P6SM SKC TEMPO 2412/2415 BKN030 FM241800 17015G20KT P6SM FEW200 FM250300 15011KT P6SM FEW200

May-24@
12:00 UTC

May-24 @ 12:00 UTC

May-24@
18:00 UTC

May-24 @ 18:00 UTC

TAF KMAF 241120Z 2412/2512 17011KT P6SM SKC

Expired

Wind
  • 170° at 11 KTS
Cloud Levels
  • Clear skies

May-24@
12:00 UTC

May-24 @ 12:00 UTC

May-24@
15:00 UTC

May-24 @ 15:00 UTC

TEMPO 2412/2415 BKN030

Expired

Cloud Levels
  • Broken at 3,000' AGL

May-24@
18:00 UTC

May-24 @ 18:00 UTC

May-25@
03:00 UTC

May-25 @ 03:00 UTC

FM241800 17015G20KT P6SM FEW200

Expired

Wind
  • 170° at 15 KTS
  • {Gusting to 20 KTS
Cloud Levels
  • Few at 20,000' AGL

May-25@
03:00 UTC

May-25 @ 03:00 UTC

May-25@
12:00 UTC

May-25 @ 12:00 UTC

FM250300 15011KT P6SM FEW200

From

From Standard forecast or significant change

Wind
  • 150° at 11 KTS
Cloud Levels
  • Few at 20,000' AGL